Mohler, Oregon
Current Conditions -  °F | °C
As of 5:15 AM on Tuesday 21 Oct 2014 (Local Time) from KTMK Reporting Station
Light Rain Light Rain  
Wind Chill: 55°   Ceiling: 3400
Heat Index: 55°   Visibility: 7mi
Dew Point: 52°   Wind: 6mph
Humidity: 88%   Direction: 160°SSE
Pressure: 29.91"   Gusts: NA
Location:  45.7222°N, 123.684°W
Report Text: KTMK 211215Z AUTO 16005KT 7SM -RA SCT016 SCT029 BKN034 13/11 A2991 RMK AO2 P0002
Loading
Personal Weather Stations






























Interactive Weather Map
Tropical Storm Tracking
New forecast layout! Learn more

10-Day Weather Forecast

Advertisements
Track Severe Weather on mobile